Time;durP1;ratioP1;P1;durP2;ratioP2;P2;SDS_P1;SDS_P2;PMS_P1;PMS_P2;Temp;Humidity;BMP_temperature;BMP_pressure;BME280_temperature;BME280_humidity;BME280_pressure;Samples;Min_cycle;Max_cycle;Signal;HPM_P1;HPM_P2
2022/12/26 00:01:58;;;;;;;1.27;0.90;;;15.00;99.90;;;;;;4963272;28;20218;-78
2022/12/26 00:04:23;;;;;;;1.42;1.00;;;15.10;99.90;;;;;;4977651;28;20171;-78
2022/12/26 00:06:49;;;;;;;1.45;1.00;;;15.00;99.90;;;;;;4979846;28;20178;-76
2022/12/26 00:09:17;;;;;;;1.42;1.00;;;15.00;99.90;;;;;;4980933;28;20183;-77
2022/12/26 00:11:45;;;;;;;1.50;1.10;;;15.00;99.90;;;;;;4966477;28;20203;-77
2022/12/26 00:14:13;;;;;;;1.17;1.05;;;15.00;99.90;;;;;;4971305;28;20207;-76
2022/12/26 00:16:41;;;;;;;1.42;0.90;;;14.90;99.90;;;;;;4964346;28;20438;-78
2022/12/26 00:19:07;;;;;;;1.95;1.20;;;14.90;99.90;;;;;;4985852;28;20234;-78
2022/12/26 00:21:33;;;;;;;1.55;1.05;;;14.90;99.90;;;;;;4979682;28;20175;-79
2022/12/26 00:23:59;;;;;;;1.85;1.13;;;14.90;99.90;;;;;;4979467;28;20290;-76
2022/12/26 00:26:28;;;;;;;1.42;1.20;;;14.90;99.90;;;;;;4963256;28;20191;-77
2022/12/26 00:28:55;;;;;;;1.45;1.00;;;14.80;99.90;;;;;;4968489;28;20215;-77
2022/12/26 00:31:23;;;;;;;1.77;1.00;;;14.80;99.90;;;;;;4961570;28;20204;-78
2022/12/26 00:33:49;;;;;;;1.67;1.30;;;14.80;99.90;;;;;;4974629;28;20193;-78
2022/12/26 00:36:23;;;;;;;1.88;1.10;;;14.80;99.90;;;;;;4977685;28;20183;-77
2022/12/26 00:38:50;;;;;;;1.48;1.10;;;14.80;99.90;;;;;;4961275;28;20186;-76
2022/12/26 00:41:22;;;;;;;1.20;1.00;;;14.70;99.90;;;;;;4978443;28;20234;-77
2022/12/26 00:43:48;;;;;;;3.55;1.48;;;14.70;99.90;;;;;;4974070;28;20190;-77
2022/12/26 00:46:17;;;;;;;3.45;1.50;;;14.70;99.90;;;;;;4964187;28;20233;-77
2022/12/26 00:48:43;;;;;;;2.65;1.73;;;14.70;99.90;;;;;;4968898;28;20176;-76
2022/12/26 00:51:11;;;;;;;1.92;1.50;;;14.70;99.90;;;;;;4968725;28;20218;-77
2022/12/26 00:53:37;;;;;;;2.63;1.42;;;14.60;99.90;;;;;;4979567;28;20171;-77
2022/12/26 00:56:03;;;;;;;2.63;1.40;;;14.60;99.90;;;;;;4975404;28;20245;-77
2022/12/26 00:58:29;;;;;;;1.50;1.35;;;14.60;99.90;;;;;;4973630;28;20165;-77
2022/12/26 01:01:03;;;;;;;2.55;1.27;;;14.60;99.90;;;;;;4961113;28;20266;-77
2022/12/26 01:03:29;;;;;;;1.40;1.10;;;14.50;99.90;;;;;;4979050;28;20190;-77
2022/12/26 01:05:58;;;;;;;1.85;1.38;;;14.60;99.90;;;;;;4971818;28;20183;-77
2022/12/26 01:08:23;;;;;;;2.58;1.17;;;14.50;99.90;;;;;;4983298;28;20183;-77
2022/12/26 01:10:49;;;;;;;2.25;1.42;;;14.50;99.90;;;;;;4962512;28;20200;-77
2022/12/26 01:13:15;;;;;;;3.28;1.23;;;14.50;99.90;;;;;;4973136;28;20203;-77
2022/12/26 01:15:49;;;;;;;1.50;1.17;;;14.50;99.90;;;;;;4968552;28;20184;-78
2022/12/26 01:18:15;;;;;;;3.03;1.25;;;14.40;99.90;;;;;;4978169;28;20194;-79
2022/12/26 01:20:41;;;;;;;3.13;1.40;;;14.40;99.90;;;;;;4959707;28;20178;-78
2022/12/26 01:23:06;;;;;;;2.17;1.10;;;14.40;99.90;;;;;;4970971;28;20203;-78
2022/12/26 01:25:33;;;;;;;2.63;1.40;;;14.40;99.90;;;;;;4981153;28;20179;-77
2022/12/26 01:28:01;;;;;;;1.80;1.23;;;14.30;99.90;;;;;;4981403;28;20254;-78
2022/12/26 01:30:26;;;;;;;1.83;1.25;;;14.40;99.90;;;;;;4972069;28;20290;-78
2022/12/26 01:32:52;;;;;;;1.92;1.15;;;14.30;99.90;;;;;;4992566;28;20179;-74
2022/12/26 01:35:21;;;;;;;1.88;1.30;;;14.30;99.90;;;;;;5000127;28;20159;-76
2022/12/26 01:37:46;;;;;;;1.95;1.30;;;14.30;99.90;;;;;;4999787;28;20175;-74
2022/12/26 01:40:12;;;;;;;1.83;1.05;;;14.30;99.90;;;;;;5000906;28;20202;-74
2022/12/26 01:42:41;;;;;;;1.83;1.25;;;14.30;99.90;;;;;;5016775;28;20156;-77
2022/12/26 01:45:19;;;;;;;1.13;1.00;;;14.20;99.90;;;;;;4999991;28;20195;-74
2022/12/26 01:48:32;;;;;;;1.92;1.13;;;14.20;99.90;;;;;;4998269;28;20226;-72
2022/12/26 01:51:01;;;;;;;2.25;0.93;;;14.20;99.90;;;;;;4921407;29;20229;-76
2022/12/26 01:53:32;;;;;;;2.03;1.10;;;14.20;99.90;;;;;;4938404;29;20178;-76
2022/12/26 01:56:02;;;;;;;2.15;1.00;;;14.10;99.90;;;;;;4978286;28;20274;-75
2022/12/26 01:58:36;;;;;;;1.92;1.10;;;14.20;99.90;;;;;;4994726;28;20184;-76
2022/12/26 02:01:05;;;;;;;2.55;1.10;;;14.20;99.90;;;;;;4993607;28;20168;-76
2022/12/26 02:06:16;;;;;;;2.45;1.25;;;14.20;99.90;;;;;;5015819;28;20349;-74
2022/12/26 02:08:47;;;;;;;2.20;1.10;;;14.20;99.90;;;;;;5006023;28;20211;-77
2022/12/26 02:11:28;;;;;;;3.15;1.38;;;14.20;99.90;;;;;;4979740;28;20196;-78
2022/12/26 02:13:56;;;;;;;3.17;1.30;;;14.30;99.90;;;;;;4987426;28;20371;-78
2022/12/26 02:16:22;;;;;;;2.00;1.27;;;14.30;99.90;;;;;;4986347;28;20171;-78
2022/12/26 02:18:48;;;;;;;1.95;1.20;;;14.30;99.90;;;;;;4990035;28;20205;-77
2022/12/26 02:22:01;;;;;;;1.55;1.17;;;14.30;99.90;;;;;;4991029;28;20210;-74
2022/12/26 02:24:35;;;;;;;2.05;1.27;;;14.40;99.90;;;;;;4948109;28;20184;-78
2022/12/26 02:27:09;;;;;;;2.35;1.25;;;14.40;99.90;;;;;;4964705;28;20195;-76
2022/12/26 02:29:50;;;;;;;1.30;1.20;;;14.50;99.90;;;;;;4980601;28;20204;-77
2022/12/26 02:32:36;;;;;;;1.70;1.20;;;14.50;99.90;;;;;;4967473;28;20180;-78
2022/12/26 02:35:41;;;;;;;2.00;1.30;;;14.50;99.90;;;;;;4964643;28;20196;-77
2022/12/26 02:38:19;;;;;;;1.63;1.15;;;14.60;99.90;;;;;;4957332;28;20254;-77
2022/12/26 02:41:02;;;;;;;2.22;1.40;;;14.60;99.90;;;;;;4981091;28;20290;-76
2022/12/26 02:43:36;;;;;;;2.75;1.30;;;14.60;99.90;;;;;;4972394;28;20180;-77
2022/12/26 03:13:23;;;;;;;2.55;1.40;;;14.40;99.90;;;;;;4979237;28;20247;-77
2022/12/26 03:18:55;;;;;;;1.85;1.17;;;14.40;99.90;;;;;;4983034;28;20265;-78
2022/12/26 03:21:26;;;;;;;2.10;1.40;;;14.30;99.90;;;;;;4980404;28;20183;-76
2022/12/26 03:23:55;;;;;;;2.90;1.40;;;14.30;99.90;;;;;;4986362;28;20205;-78
2022/12/26 03:26:46;;;;;;;2.45;1.30;;;14.30;99.90;;;;;;4979384;28;20187;-75
2022/12/26 03:32:07;;;;;;;1.50;1.30;;;14.30;99.90;;;;;;4994072;28;20211;-77
2022/12/26 03:34:36;;;;;;;2.67;1.30;;;14.40;99.90;;;;;;4977093;28;20261;-78
2022/12/26 03:37:27;;;;;;;3.60;1.55;;;14.30;99.90;;;;;;4979866;28;20175;-78
2022/12/26 04:44:33;;;;;;;1.13;1.00;;;14.30;99.90;;;;;;4976926;28;20194;-77
2022/12/26 04:46:59;;;;;;;1.92;0.98;;;14.30;99.90;;;;;;4959661;28;20199;-78
2022/12/26 04:52:53;;;;;;;2.42;0.90;;;14.30;99.90;;;;;;4958645;28;20192;-78
2022/12/26 04:55:09;;;;;;;1.10;1.00;;;14.30;99.90;;;;;;4978234;28;20175;-77
2022/12/26 04:57:35;;;;;;;1.55;0.95;;;14.30;99.90;;;;;;4959899;28;20176;-77
2022/12/26 05:00:00;;;;;;;1.80;1.00;;;14.20;99.90;;;;;;4970330;28;20238;-77
2022/12/26 05:10:41;;;;;;;1.13;0.90;;;14.30;99.90;;;;;;4984337;28;20254;-77
2022/12/26 05:13:09;;;;;;;2.00;1.23;;;14.30;99.90;;;;;;4964819;28;20203;-78
2022/12/26 05:28:40;;;;;;;1.23;1.02;;;14.30;99.90;;;;;;4978844;28;20179;-77
2022/12/26 05:29:27;;;;;;;2.33;1.27;;;14.00;99.90;;;;;;4983713;28;20211;-77
2022/12/26 05:31:52;;;;;;;1.30;1.13;;;13.80;99.90;;;;;;4968944;28;20199;-79
2022/12/26 05:34:20;;;;;;;1.90;0.85;;;13.80;99.90;;;;;;4977506;28;20198;-78
2022/12/26 05:36:52;;;;;;;1.20;0.90;;;13.60;99.90;;;;;;4972788;28;20176;-79
2022/12/26 05:39:18;;;;;;;1.50;0.93;;;13.50;99.90;;;;;;4982487;28;20463;-78
2022/12/26 05:41:44;;;;;;;1.42;1.00;;;13.40;99.90;;;;;;4982306;28;20183;-79
2022/12/26 05:44:10;;;;;;;1.20;0.90;;;13.30;99.90;;;;;;4976937;28;20180;-78
2022/12/26 05:46:41;;;;;;;1.60;0.80;;;13.30;99.90;;;;;;4987544;28;20252;-75
2022/12/26 05:49:07;;;;;;;1.00;0.70;;;13.20;99.90;;;;;;4986793;28;20211;-73
2022/12/26 05:51:37;;;;;;;0.73;0.65;;;13.20;99.90;;;;;;4981327;28;20286;-75
2022/12/26 05:54:03;;;;;;;1.00;0.80;;;13.10;99.90;;;;;;4994327;28;20195;-80
2022/12/26 05:56:29;;;;;;;1.20;0.75;;;13.10;99.90;;;;;;4997698;28;20289;-77
2022/12/26 05:58:59;;;;;;;1.08;0.80;;;13.10;99.90;;;;;;4996589;28;20198;-77
2022/12/26 06:01:28;;;;;;;1.25;0.70;;;13.10;99.90;;;;;;4993993;28;20218;-75
2022/12/26 06:03:57;;;;;;;1.45;0.90;;;13.10;99.90;;;;;;4991234;28;20176;-76
2022/12/26 06:06:24;;;;;;;1.38;0.85;;;13.10;99.90;;;;;;4971023;28;20231;-78
2022/12/26 06:08:54;;;;;;;1.70;0.88;;;13.00;99.90;;;;;;4980269;28;20176;-78
2022/12/26 06:11:21;;;;;;;1.33;0.90;;;13.10;99.90;;;;;;4981502;28;20257;-78
2022/12/26 06:13:46;;;;;;;1.30;0.80;;;13.10;99.90;;;;;;4982518;28;20202;-78
2022/12/26 06:16:14;;;;;;;0.80;0.70;;;13.00;99.90;;;;;;4989032;28;20171;-78
2022/12/26 06:18:40;;;;;;;1.50;0.75;;;13.00;99.90;;;;;;4981386;28;20258;-76
2022/12/26 06:21:09;;;;;;;2.80;0.80;;;13.00;99.90;;;;;;4982091;28;20227;-77
2022/12/26 06:23:36;;;;;;;1.75;0.90;;;13.00;99.90;;;;;;4981860;28;20538;-78
2022/12/26 06:26:05;;;;;;;1.10;0.80;;;13.00;99.90;;;;;;4981286;28;20183;-78
2022/12/26 06:28:32;;;;;;;1.13;0.80;;;13.00;99.90;;;;;;4981478;28;20168;-77
2022/12/26 06:31:24;;;;;;;1.65;0.90;;;13.00;99.90;;;;;;4981272;28;20286;-78
2022/12/26 06:33:55;;;;;;;0.98;0.88;;;13.10;99.90;;;;;;4976918;28;20191;-77
2022/12/26 06:36:25;;;;;;;0.90;0.80;;;13.00;99.90;;;;;;4980935;28;20167;-78
2022/12/26 06:38:51;;;;;;;0.77;0.70;;;13.10;99.90;;;;;;4980351;28;20191;-78
2022/12/26 06:41:18;;;;;;;1.55;0.90;;;13.00;99.90;;;;;;4981246;28;20189;-78
2022/12/26 06:43:46;;;;;;;1.17;0.80;;;13.00;99.90;;;;;;4976935;28;20176;-80
2022/12/26 06:46:14;;;;;;;1.58;0.73;;;12.90;99.90;;;;;;4962192;28;20200;-77
2022/12/26 06:48:41;;;;;;;1.85;0.43;;;12.80;99.90;;;;;;4977702;28;20183;-79
2022/12/26 06:51:12;;;;;;;0.80;0.52;;;12.70;99.90;;;;;;4977076;28;20200;-77
2022/12/26 06:53:43;;;;;;;1.73;0.50;;;12.60;99.90;;;;;;4964621;28;20172;-76
2022/12/26 06:56:18;;;;;;;0.55;0.38;;;12.50;99.90;;;;;;4970207;28;20196;-76
2022/12/26 06:58:46;;;;;;;0.80;0.60;;;12.40;99.90;;;;;;4975266;28;20179;-78
2022/12/26 07:01:16;;;;;;;0.70;0.50;;;12.30;99.90;;;;;;4961584;28;20271;-78
2022/12/26 07:03:43;;;;;;;0.50;0.50;;;12.30;99.90;;;;;;4976702;28;20171;-78
2022/12/26 07:06:23;;;;;;;0.40;0.40;;;12.20;99.90;;;;;;4982069;28;20179;-78
2022/12/26 07:08:52;;;;;;;0.35;0.35;;;12.20;99.90;;;;;;4993976;28;20202;-76
2022/12/26 07:11:21;;;;;;;0.30;0.30;;;12.20;99.90;;;;;;4965483;28;20187;-78
2022/12/26 07:13:48;;;;;;;0.40;0.30;;;12.20;99.90;;;;;;4964659;28;20208;-72
2022/12/26 07:16:16;;;;;;;0.30;0.30;;;12.20;99.90;;;;;;4975094;28;20176;-73
2022/12/26 07:18:42;;;;;;;0.40;0.30;;;12.20;99.90;;;;;;4974904;28;20235;-72
2022/12/26 07:21:12;;;;;;;0.30;0.30;;;12.20;99.90;;;;;;4961710;28;20184;-72
2022/12/26 07:23:38;;;;;;;0.30;0.30;;;12.20;99.90;;;;;;4972433;28;20296;-72
2022/12/26 07:26:05;;;;;;;0.90;0.40;;;12.20;99.90;;;;;;4978073;28;20211;-72
2022/12/26 07:28:31;;;;;;;0.70;0.30;;;12.20;99.90;;;;;;4961089;28;20183;-71
2022/12/26 07:30:59;;;;;;;0.88;0.60;;;12.20;99.90;;;;;;4972393;28;20195;-72
2022/12/26 07:33:28;;;;;;;2.08;0.40;;;12.20;99.90;;;;;;4979994;28;20182;-73
2022/12/26 07:35:57;;;;;;;0.50;0.45;;;12.20;99.90;;;;;;4980367;28;20196;-72
2022/12/26 07:38:26;;;;;;;2.40;0.57;;;12.20;99.90;;;;;;4978927;28;20206;-72
2022/12/26 07:40:55;;;;;;;0.70;0.50;;;12.20;99.90;;;;;;4979041;28;20264;-73
2022/12/26 07:43:21;;;;;;;1.13;1.00;;;12.20;99.90;;;;;;4980005;28;20202;-72
2022/12/26 07:45:47;;;;;;;3.35;2.50;;;12.20;99.90;;;;;;4977941;28;20483;-72
2022/12/26 07:48:12;;;;;;;2.15;1.95;;;12.20;99.90;;;;;;4979305;28;20175;-72
2022/12/26 07:50:40;;;;;;;1.25;0.95;;;12.20;99.90;;;;;;4977977;28;20219;-72
2022/12/26 07:53:06;;;;;;;1.92;1.00;;;12.20;99.90;;;;;;4976927;28;20175;-72
2022/12/26 07:55:32;;;;;;;1.75;1.48;;;12.10;99.90;;;;;;4960659;28;20176;-71
2022/12/26 07:57:57;;;;;;;1.17;0.90;;;12.20;99.90;;;;;;4978562;28;20213;-72
2022/12/26 08:00:25;;;;;;;3.05;1.90;;;12.10;99.90;;;;;;4971142;28;20202;-72
2022/12/26 08:02:53;;;;;;;1.83;1.30;;;12.10;99.90;;;;;;4960749;28;20176;-72
2022/12/26 08:05:21;;;;;;;1.30;1.10;;;12.10;99.90;;;;;;4968606;28;20176;-72
2022/12/26 08:07:47;;;;;;;1.50;1.10;;;12.10;99.90;;;;;;4975619;28;20203;-72
2022/12/26 08:10:14;;;;;;;1.30;0.90;;;12.10;99.90;;;;;;4960797;28;20195;-72
2022/12/26 08:12:40;;;;;;;1.50;1.08;;;12.10;99.90;;;;;;4977802;28;20203;-72
2022/12/26 08:15:06;;;;;;;1.52;1.00;;;12.10;99.90;;;;;;4976438;28;20205;-72
2022/12/26 08:17:34;;;;;;;1.23;0.80;;;12.10;99.90;;;;;;4959798;28;20270;-72
2022/12/26 08:20:00;;;;;;;3.83;3.00;;;12.00;99.90;;;;;;4969767;28;20187;-72
2022/12/26 08:22:28;;;;;;;2.10;1.50;;;12.10;99.90;;;;;;4975488;28;20164;-72
2022/12/26 08:24:54;;;;;;;2.42;1.83;;;12.00;99.90;;;;;;4962093;28;20239;-72
2022/12/26 08:27:22;;;;;;;1.85;1.63;;;12.00;99.90;;;;;;4971918;28;20275;-72
2022/12/26 08:29:49;;;;;;;1.77;1.30;;;12.00;99.90;;;;;;4979125;28;20283;-72
2022/12/26 08:32:15;;;;;;;1.85;1.55;;;12.10;99.90;;;;;;4978540;28;20203;-71
2022/12/26 08:34:45;;;;;;;1.77;1.50;;;12.00;99.90;;;;;;4986550;28;20269;-72
2022/12/26 08:37:11;;;;;;;1.40;1.30;;;12.00;99.90;;;;;;4979310;28;20420;-74
2022/12/26 08:39:36;;;;;;;1.60;1.23;;;12.00;99.90;;;;;;4964302;28;20274;-73
2022/12/26 08:42:05;;;;;;;1.50;1.20;;;12.10;99.90;;;;;;4977132;28;20188;-73
2022/12/26 08:44:30;;;;;;;1.52;1.20;;;12.00;99.90;;;;;;4962944;28;20266;-73
2022/12/26 08:46:56;;;;;;;2.05;1.38;;;12.10;99.90;;;;;;4976402;28;20246;-73
2022/12/26 08:49:24;;;;;;;2.65;1.33;;;12.10;99.90;;;;;;4960782;28;20176;-73
2022/12/26 08:51:52;;;;;;;1.50;1.25;;;12.10;99.90;;;;;;4978795;28;20209;-73
2022/12/26 08:54:22;;;;;;;1.52;1.35;;;12.10;99.90;;;;;;4964042;28;20495;-72
2022/12/26 08:56:48;;;;;;;1.50;1.40;;;12.20;99.90;;;;;;4960255;28;20203;-73
2022/12/26 08:59:13;;;;;;;2.65;1.65;;;12.20;99.90;;;;;;4969299;28;20176;-73
2022/12/26 09:01:39;;;;;;;1.70;1.60;;;12.20;99.90;;;;;;4960237;28;20203;-74
2022/12/26 09:04:06;;;;;;;2.70;2.00;;;12.30;99.90;;;;;;4978636;28;20249;-73
2022/12/26 09:06:34;;;;;;;2.15;1.70;;;12.30;99.90;;;;;;4967602;28;20231;-72
2022/12/26 09:09:01;;;;;;;2.38;1.80;;;12.40;99.90;;;;;;4978708;28;20211;-73
2022/12/26 09:11:30;;;;;;;3.05;2.10;;;12.40;99.90;;;;;;4977701;28;20206;-73
2022/12/26 09:13:57;;;;;;;2.38;1.80;;;12.50;99.90;;;;;;4986472;28;20270;-73
2022/12/26 09:16:25;;;;;;;2.42;1.70;;;12.50;99.90;;;;;;4969207;28;20178;-73
2022/12/26 09:18:59;;;;;;;1.90;1.70;;;12.60;99.90;;;;;;4978514;28;20227;-73
2022/12/26 09:21:26;;;;;;;2.92;1.98;;;12.60;99.90;;;;;;4973951;28;20179;-74
2022/12/26 09:24:00;;;;;;;2.28;1.70;;;12.70;99.90;;;;;;4972811;28;20208;-72
2022/12/26 09:26:26;;;;;;;2.47;1.88;;;12.70;99.90;;;;;;4978889;28;20214;-75
2022/12/26 09:28:55;;;;;;;2.25;1.75;;;12.80;99.90;;;;;;4977670;28;20515;-73
2022/12/26 09:31:30;;;;;;;3.58;1.80;;;12.90;99.90;;;;;;4977975;28;20195;-73
2022/12/26 09:33:59;;;;;;;2.20;1.85;;;13.00;99.90;;;;;;4976192;28;20213;-74
2022/12/26 09:36:28;;;;;;;2.75;1.98;;;13.20;99.90;;;;;;4977516;28;20206;-73
2022/12/26 09:38:55;;;;;;;2.72;1.58;;;13.20;99.90;;;;;;4964040;28;20230;-73
2022/12/26 09:41:49;;;;;;;2.88;1.58;;;13.30;99.90;;;;;;4970908;28;20176;-74
2022/12/26 09:44:38;;;;;;;1.13;1.02;;;13.40;99.90;;;;;;4969148;28;20168;-73
2022/12/26 09:47:27;;;;;;;1.65;1.13;;;13.40;99.90;;;;;;4977228;28;20302;-73
2022/12/26 09:49:55;;;;;;;1.10;0.93;;;13.40;99.90;;;;;;4972092;28;20184;-73
2022/12/26 09:52:38;;;;;;;1.48;1.38;;;13.40;99.90;;;;;;4960759;28;20183;-73
2022/12/26 09:55:41;;;;;;;1.77;1.00;;;13.40;99.90;;;;;;4978052;28;20235;-73
2022/12/26 09:58:21;;;;;;;1.83;1.20;;;13.50;99.90;;;;;;4984128;28;20176;-74
2022/12/26 10:01:05;;;;;;;2.95;0.88;;;13.50;99.90;;;;;;4969625;28;20176;-74
2022/12/26 10:03:43;;;;;;;1.17;0.88;;;13.60;99.90;;;;;;4958935;28;20179;-73
2022/12/26 10:06:13;;;;;;;1.23;0.80;;;13.70;99.90;;;;;;4974480;28;20243;-72
2022/12/26 10:09:03;;;;;;;2.28;0.90;;;13.70;99.90;;;;;;4973659;28;20282;-73
2022/12/26 10:11:40;;;;;;;1.70;0.90;;;13.80;99.90;;;;;;4975471;28;20195;-73
2022/12/26 10:14:25;;;;;;;1.05;0.70;;;13.90;99.90;;;;;;4959048;28;20230;-74
2022/12/26 10:17:18;;;;;;;1.73;0.80;;;13.90;99.90;;;;;;4975764;28;20175;-73
2022/12/26 10:19:58;;;;;;;2.40;0.85;;;14.00;99.90;;;;;;4977333;28;20428;-74
2022/12/26 10:23:04;;;;;;;1.77;0.82;;;14.00;99.90;;;;;;4962138;28;20211;-73
2022/12/26 10:25:54;;;;;;;1.83;1.00;;;14.10;99.90;;;;;;4979011;28;20175;-73
2022/12/26 10:28:35;;;;;;;1.48;0.70;;;14.10;99.90;;;;;;4981184;28;20210;-72
2022/12/26 10:31:08;;;;;;;1.08;0.63;;;14.20;99.90;;;;;;4962318;28;20215;-73
2022/12/26 10:33:43;;;;;;;1.95;0.70;;;14.20;99.90;;;;;;4971766;28;20172;-74
2022/12/26 10:36:34;;;;;;;1.38;0.70;;;14.10;99.90;;;;;;4985756;28;20170;-75
2022/12/26 10:39:09;;;;;;;1.23;0.73;;;14.30;99.90;;;;;;4953653;28;20200;-75
2022/12/26 10:41:41;;;;;;;1.70;1.00;;;14.20;99.90;;;;;;4968787;28;20206;-73
2022/12/26 10:44:14;;;;;;;2.30;0.70;;;14.30;99.90;;;;;;4973186;28;20432;-73
2022/12/26 10:46:45;;;;;;;1.02;0.63;;;14.30;99.90;;;;;;4962099;28;20184;-75
2022/12/26 10:49:17;;;;;;;1.10;0.90;;;14.40;99.90;;;;;;4970894;28;20207;-75
2022/12/26 10:51:43;;;;;;;1.42;0.75;;;14.40;99.90;;;;;;4976892;28;20208;-74
2022/12/26 10:54:18;;;;;;;2.08;0.90;;;14.40;99.90;;;;;;4980694;28;20263;-74
2022/12/26 10:56:46;;;;;;;2.10;0.70;;;14.50;99.90;;;;;;4979445;28;20211;-76
2022/12/26 10:59:30;;;;;;;2.08;0.90;;;14.50;99.90;;;;;;4972801;28;20191;-74
2022/12/26 11:02:15;;;;;;;1.23;0.60;;;14.50;99.90;;;;;;4978603;28;20213;-75
2022/12/26 11:05:09;;;;;;;1.35;0.70;;;14.50;99.90;;;;;;4983000;28;20206;-73
2022/12/26 11:07:40;;;;;;;2.58;0.80;;;14.50;99.90;;;;;;4971791;28;20199;-74
2022/12/26 11:10:22;;;;;;;0.70;0.60;;;14.60;99.90;;;;;;4969768;28;20183;-74
2022/12/26 11:12:53;;;;;;;2.20;0.88;;;14.50;99.90;;;;;;4968476;28;20198;-73
2022/12/26 11:15:21;;;;;;;1.20;0.60;;;14.70;99.90;;;;;;4980548;28;20175;-74
2022/12/26 11:17:54;;;;;;;0.90;0.60;;;14.70;99.90;;;;;;4985100;28;20196;-73
2022/12/26 11:20:22;;;;;;;1.10;0.50;;;14.70;99.90;;;;;;4977368;28;20208;-74
2022/12/26 11:22:53;;;;;;;1.92;0.80;;;14.70;99.90;;;;;;4979953;28;20175;-75
2022/12/26 11:25:21;;;;;;;2.08;0.60;;;14.70;99.90;;;;;;4980440;28;20183;-73
2022/12/26 11:27:54;;;;;;;1.50;0.73;;;14.70;99.90;;;;;;4980424;28;20267;-75
2022/12/26 11:30:27;;;;;;;1.30;0.70;;;14.70;99.90;;;;;;4979444;28;20199;-75
2022/12/26 11:33:10;;;;;;;2.00;0.60;;;14.70;99.90;;;;;;4995911;28;20176;-74
2022/12/26 11:36:05;;;;;;;2.28;0.70;;;14.70;99.90;;;;;;4962345;28;20191;-74
2022/12/26 11:38:36;;;;;;;1.70;0.63;;;14.70;99.90;;;;;;4959714;28;20207;-75
2022/12/26 11:41:32;;;;;;;1.23;0.80;;;14.70;99.90;;;;;;4968556;28;20186;-74
2022/12/26 11:44:03;;;;;;;1.55;0.60;;;14.70;99.90;;;;;;4968834;28;20182;-74
2022/12/26 11:46:39;;;;;;;1.65;0.75;;;14.70;99.90;;;;;;4960929;28;20262;-75
2022/12/26 11:49:06;;;;;;;0.93;0.60;;;14.60;99.90;;;;;;4977816;28;20183;-75
2022/12/26 11:51:41;;;;;;;1.70;0.77;;;14.60;99.90;;;;;;4979440;28;20213;-74
2022/12/26 11:54:26;;;;;;;2.22;0.75;;;14.60;99.90;;;;;;4960440;28;20211;-74
2022/12/26 11:57:03;;;;;;;1.75;0.60;;;14.50;99.90;;;;;;4970806;28;20384;-73
2022/12/26 11:59:30;;;;;;;1.60;0.70;;;14.50;99.90;;;;;;4968343;28;20243;-75
2022/12/26 12:02:22;;;;;;;1.38;0.50;;;14.50;99.90;;;;;;4960473;28;20262;-74
2022/12/26 12:04:53;;;;;;;0.95;0.60;;;14.50;99.90;;;;;;4973147;28;20176;-74
2022/12/26 12:07:28;;;;;;;1.67;0.70;;;14.50;99.90;;;;;;4963285;28;20262;-75
2022/12/26 12:10:06;;;;;;;2.42;0.77;;;14.50;99.90;;;;;;4962919;28;20190;-73
2022/12/26 12:12:31;;;;;;;3.85;0.80;;;14.50;99.90;;;;;;4974509;28;20221;-75
2022/12/26 12:15:23;;;;;;;1.70;0.70;;;14.40;99.90;;;;;;4975033;28;20184;-75
2022/12/26 12:18:01;;;;;;;1.63;0.50;;;14.40;99.90;;;;;;4956707;28;20191;-74
2022/12/26 12:20:55;;;;;;;1.40;0.70;;;14.40;99.90;;;;;;4978759;28;20269;-73
2022/12/26 12:23:20;;;;;;;2.50;0.82;;;14.40;99.90;;;;;;4975716;28;20450;-74
2022/12/26 12:26:08;;;;;;;2.42;0.63;;;14.40;99.90;;;;;;4978856;28;20189;-73
2022/12/26 12:29:05;;;;;;;1.30;0.75;;;14.30;99.90;;;;;;4962714;28;20188;-73
2022/12/26 12:31:46;;;;;;;1.02;0.57;;;14.30;99.90;;;;;;4975144;28;20198;-75
2022/12/26 12:34:17;;;;;;;1.38;0.55;;;14.30;99.90;;;;;;4978961;28;20191;-73
2022/12/26 12:36:51;;;;;;;2.20;0.80;;;14.30;99.90;;;;;;4975065;28;20179;-74
2022/12/26 12:39:25;;;;;;;1.42;0.75;;;14.30;99.90;;;;;;4982871;28;20194;-74
2022/12/26 12:42:17;;;;;;;1.58;0.60;;;14.40;99.90;;;;;;4970385;28;20176;-73
2022/12/26 12:45:15;;;;;;;2.50;0.80;;;14.40;99.90;;;;;;4967916;28;20218;-74
2022/12/26 12:47:56;;;;;;;2.13;0.85;;;14.40;99.90;;;;;;4959798;28;20270;-75
2022/12/26 12:50:29;;;;;;;2.45;0.80;;;14.50;99.90;;;;;;4977916;28;20250;-74
2022/12/26 12:53:10;;;;;;;2.17;0.82;;;14.50;99.90;;;;;;4971824;28;20242;-72
2022/12/26 12:56:06;;;;;;;2.00;0.85;;;14.50;99.90;;;;;;4968433;28;20182;-74
2022/12/26 12:59:03;;;;;;;1.35;0.50;;;14.50;99.90;;;;;;4974389;28;20187;-74
2022/12/26 13:01:33;;;;;;;3.42;0.90;;;14.50;99.90;;;;;;4975584;28;20616;-74
2022/12/26 13:04:25;;;;;;;1.42;0.68;;;14.50;99.90;;;;;;4978535;28;20233;-74
2022/12/26 13:07:05;;;;;;;1.23;0.73;;;14.50;99.90;;;;;;4967709;28;20187;-74
2022/12/26 13:09:59;;;;;;;3.10;0.73;;;14.40;99.90;;;;;;4960737;28;20262;-73
2022/12/26 13:12:51;;;;;;;1.27;0.68;;;14.40;99.90;;;;;;4982828;28;20200;-75
2022/12/26 13:15:41;;;;;;;1.15;0.60;;;14.30;99.90;;;;;;4971374;28;20454;-74
2022/12/26 13:18:18;;;;;;;1.02;0.47;;;14.30;99.90;;;;;;4978177;28;20210;-74
2022/12/26 13:21:10;;;;;;;1.88;0.88;;;14.20;99.90;;;;;;4974168;28;20175;-74
2022/12/26 13:26:34;;;;;;;1.60;0.80;;;14.20;99.90;;;;;;4980433;28;20212;-74
2022/12/26 13:29:12;;;;;;;1.20;0.70;;;14.10;99.90;;;;;;4976802;28;20207;-74
2022/12/26 13:31:43;;;;;;;2.47;0.85;;;14.00;99.90;;;;;;4972552;28;20205;-74
2022/12/26 13:34:14;;;;;;;1.75;0.82;;;14.00;99.90;;;;;;4975155;28;20199;-74
2022/12/26 13:36:41;;;;;;;1.10;0.70;;;14.00;99.90;;;;;;4975238;28;20175;-74
2022/12/26 13:39:22;;;;;;;1.23;0.60;;;14.00;99.90;;;;;;4974394;28;20215;-75
2022/12/26 13:44:42;;;;;;;1.00;0.63;;;13.90;99.90;;;;;;4992725;28;20285;-74
2022/12/26 13:47:32;;;;;;;1.48;0.70;;;13.80;99.90;;;;;;4972772;28;20183;-74
2022/12/26 13:50:18;;;;;;;1.23;0.50;;;13.80;99.90;;;;;;4965395;28;20214;-75
2022/12/26 13:52:45;;;;;;;0.70;0.57;;;13.80;99.90;;;;;;4973168;28;20176;-75
2022/12/26 13:55:13;;;;;;;1.10;0.60;;;13.80;99.90;;;;;;4978005;28;20182;-75
2022/12/26 13:57:42;;;;;;;1.77;0.80;;;13.70;99.90;;;;;;4961455;28;20172;-74
2022/12/26 14:00:15;;;;;;;1.30;0.75;;;13.70;99.90;;;;;;4965010;28;20182;-74
2022/12/26 14:03:18;;;;;;;1.40;0.60;;;13.70;99.90;;;;;;4966002;28;20183;-74
2022/12/26 14:06:22;;;;;;;1.75;0.70;;;13.70;99.90;;;;;;4978278;28;20183;-75
2022/12/26 14:09:07;;;;;;;0.88;0.52;;;13.60;99.90;;;;;;4962210;28;20184;-73
2022/12/26 14:12:10;;;;;;;1.23;0.43;;;13.50;99.90;;;;;;4983738;28;20199;-76
2022/12/26 14:14:56;;;;;;;0.40;0.30;;;13.30;99.90;;;;;;4980457;28;20163;-74
2022/12/26 14:17:37;;;;;;;0.85;0.43;;;12.90;99.90;;;;;;4971127;28;20219;-75
2022/12/26 14:20:06;;;;;;;1.23;0.25;;;12.60;99.90;;;;;;4960040;28;20171;-75
2022/12/26 14:22:40;;;;;;;0.65;0.30;;;12.30;99.90;;;;;;4964751;28;20172;-74
2022/12/26 14:25:18;;;;;;;1.25;0.45;;;12.00;99.90;;;;;;4992108;28;20183;-75
2022/12/26 14:27:50;;;;;;;0.40;0.40;;;11.80;99.90;;;;;;4978593;28;20171;-74
2022/12/26 14:30:36;;;;;;;1.08;0.50;;;11.50;99.90;;;;;;4988613;28;20234;-74
2022/12/26 14:33:18;;;;;;;0.98;0.60;;;11.40;99.90;;;;;;4963813;28;20172;-74
2022/12/26 14:36:18;;;;;;;0.98;0.50;;;11.20;99.90;;;;;;4978218;28;20195;-73
2022/12/26 14:39:02;;;;;;;1.23;0.80;;;11.10;99.90;;;;;;4971456;28;20195;-73
2022/12/26 14:44:32;;;;;;;0.90;0.57;;;10.90;99.90;;;;;;4978445;28;20349;-75
2022/12/26 14:47:01;;;;;;;1.30;0.57;;;10.70;99.90;;;;;;4980846;28;20285;-74
2022/12/26 14:49:29;;;;;;;0.70;0.50;;;10.70;99.90;;;;;;4978345;28;20194;-75
2022/12/26 14:52:26;;;;;;;0.85;0.60;;;10.60;99.90;;;;;;4970405;28;20282;-74
2022/12/26 14:54:59;;;;;;;2.40;0.70;;;10.60;99.90;;;;;;4978133;28;20184;-74
2022/12/26 14:57:47;;;;;;;1.40;0.80;;;10.60;99.90;;;;;;4977829;28;20183;-74
2022/12/26 15:00:22;;;;;;;1.20;0.70;;;10.60;99.90;;;;;;4976685;28;20171;-75
2022/12/26 15:03:13;;;;;;;1.83;0.80;;;10.60;99.90;;;;;;4976798;28;20250;-74
2022/12/26 15:05:43;;;;;;;1.23;0.95;;;10.60;99.90;;;;;;4974480;28;20211;-75
2022/12/26 15:08:17;;;;;;;1.75;0.82;;;10.50;99.90;;;;;;4980718;28;20167;-77
2022/12/26 15:11:21;;;;;;;4.10;0.90;;;10.50;99.90;;;;;;4961291;28;20194;-76
2022/12/26 15:14:15;;;;;;;2.95;0.93;;;10.50;99.90;;;;;;4993211;28;20184;-75
2022/12/26 15:16:44;;;;;;;2.30;0.90;;;10.40;99.90;;;;;;4959877;28;20184;-77
2022/12/26 15:19:25;;;;;;;1.17;0.80;;;10.40;99.90;;;;;;4969327;28;20186;-77
2022/12/26 15:22:28;;;;;;;2.93;1.00;;;10.30;99.90;;;;;;4961737;28;20210;-77
2022/12/26 15:25:40;;;;;;;1.50;0.80;;;10.30;99.90;;;;;;4964258;28;20351;-77
2022/12/26 15:28:12;;;;;;;1.10;0.90;;;10.30;99.90;;;;;;4975344;28;20271;-76
2022/12/26 15:31:17;;;;;;;1.67;0.77;;;10.20;99.90;;;;;;4971728;28;20203;-78
2022/12/26 15:33:51;;;;;;;2.53;1.10;;;10.20;99.90;;;;;;4977116;28;20242;-77
2022/12/26 15:36:25;;;;;;;1.53;0.80;;;10.10;99.90;;;;;;4980343;28;20207;-77